sensor_id;sensor_type;location;lat;lon;timestamp;P1;durP1;ratioP1;P2;durP2;ratioP2
82159;SDS011;71734;50.876;7.372;2023-09-30T00:00:25;7.30;;;2.45;;
82159;SDS011;71734;50.876;7.372;2023-09-30T00:02:52;8.25;;;2.25;;
82159;SDS011;71734;50.876;7.372;2023-09-30T00:05:18;6.43;;;2.17;;
82159;SDS011;71734;50.876;7.372;2023-09-30T00:07:45;9.45;;;2.42;;
82159;SDS011;71734;50.876;7.372;2023-09-30T00:10:13;7.15;;;2.20;;
82159;SDS011;71734;50.876;7.372;2023-09-30T00:12:41;11.13;;;2.55;;
82159;SDS011;71734;50.876;7.372;2023-09-30T00:15:08;9.38;;;2.92;;
82159;SDS011;71734;50.876;7.372;2023-09-30T00:17:35;10.10;;;2.88;;
82159;SDS011;71734;50.876;7.372;2023-09-30T00:20:02;9.13;;;2.80;;
82159;SDS011;71734;50.876;7.372;2023-09-30T00:22:30;10.35;;;3.13;;
82159;SDS011;71734;50.876;7.372;2023-09-30T00:24:56;9.43;;;2.80;;
82159;SDS011;71734;50.876;7.372;2023-09-30T00:27:24;8.32;;;2.30;;
82159;SDS011;71734;50.876;7.372;2023-09-30T00:29:52;11.90;;;3.65;;
82159;SDS011;71734;50.876;7.372;2023-09-30T00:32:18;9.68;;;2.88;;
82159;SDS011;71734;50.876;7.372;2023-09-30T00:34:45;8.20;;;2.75;;
82159;SDS011;71734;50.876;7.372;2023-09-30T00:37:11;9.20;;;2.88;;
82159;SDS011;71734;50.876;7.372;2023-09-30T00:39:38;7.95;;;2.65;;
82159;SDS011;71734;50.876;7.372;2023-09-30T00:42:09;10.48;;;2.92;;
82159;SDS011;71734;50.876;7.372;2023-09-30T00:44:37;9.82;;;3.70;;
82159;SDS011;71734;50.876;7.372;2023-09-30T00:47:04;13.25;;;3.45;;
82159;SDS011;71734;50.876;7.372;2023-09-30T00:49:31;10.63;;;2.88;;
82159;SDS011;71734;50.876;7.372;2023-09-30T00:51:59;10.00;;;2.97;;
82159;SDS011;71734;50.876;7.372;2023-09-30T00:54:28;10.00;;;3.08;;
82159;SDS011;71734;50.876;7.372;2023-09-30T00:56:57;10.77;;;3.20;;
82159;SDS011;71734;50.876;7.372;2023-09-30T00:59:27;10.15;;;3.15;;
82159;SDS011;71734;50.876;7.372;2023-09-30T01:01:56;10.35;;;2.90;;
82159;SDS011;71734;50.876;7.372;2023-09-30T01:04:26;9.80;;;3.20;;
82159;SDS011;71734;50.876;7.372;2023-09-30T01:06:53;9.52;;;3.15;;
82159;SDS011;71734;50.876;7.372;2023-09-30T01:09:22;7.88;;;3.00;;
82159;SDS011;71734;50.876;7.372;2023-09-30T01:11:48;8.70;;;3.10;;
82159;SDS011;71734;50.876;7.372;2023-09-30T01:14:24;9.40;;;3.28;;
82159;SDS011;71734;50.876;7.372;2023-09-30T01:16:52;11.43;;;3.70;;
82159;SDS011;71734;50.876;7.372;2023-09-30T01:19:20;10.15;;;3.30;;
82159;SDS011;71734;50.876;7.372;2023-09-30T01:21:50;10.35;;;3.10;;
82159;SDS011;71734;50.876;7.372;2023-09-30T01:24:19;9.13;;;3.00;;
82159;SDS011;71734;50.876;7.372;2023-09-30T01:26:46;8.13;;;2.47;;
82159;SDS011;71734;50.876;7.372;2023-09-30T01:29:13;7.32;;;2.40;;
82159;SDS011;71734;50.876;7.372;2023-09-30T01:31:40;7.63;;;2.10;;
82159;SDS011;71734;50.876;7.372;2023-09-30T01:34:07;7.72;;;2.10;;
82159;SDS011;71734;50.876;7.372;2023-09-30T01:36:36;7.07;;;2.35;;
82159;SDS011;71734;50.876;7.372;2023-09-30T01:39:04;9.75;;;2.10;;
82159;SDS011;71734;50.876;7.372;2023-09-30T01:41:32;8.63;;;2.20;;
82159;SDS011;71734;50.876;7.372;2023-09-30T01:43:59;7.20;;;2.13;;
82159;SDS011;71734;50.876;7.372;2023-09-30T01:46:25;6.55;;;2.33;;
82159;SDS011;71734;50.876;7.372;2023-09-30T01:48:52;7.68;;;2.63;;
82159;SDS011;71734;50.876;7.372;2023-09-30T01:51:19;8.18;;;2.30;;
82159;SDS011;71734;50.876;7.372;2023-09-30T01:53:46;8.05;;;2.30;;
82159;SDS011;71734;50.876;7.372;2023-09-30T01:56:15;6.60;;;2.03;;
82159;SDS011;71734;50.876;7.372;2023-09-30T01:58:41;6.65;;;2.05;;
82159;SDS011;71734;50.876;7.372;2023-09-30T02:01:08;5.35;;;1.90;;
82159;SDS011;71734;50.876;7.372;2023-09-30T02:03:35;7.75;;;2.47;;
82159;SDS011;71734;50.876;7.372;2023-09-30T02:06:02;8.75;;;2.63;;
82159;SDS011;71734;50.876;7.372;2023-09-30T02:08:29;9.15;;;2.55;;
82159;SDS011;71734;50.876;7.372;2023-09-30T02:10:56;5.28;;;1.63;;
82159;SDS011;71734;50.876;7.372;2023-09-30T02:13:27;4.68;;;1.80;;
82159;SDS011;71734;50.876;7.372;2023-09-30T02:15:53;6.60;;;2.00;;
82159;SDS011;71734;50.876;7.372;2023-09-30T02:18:21;5.13;;;1.95;;
82159;SDS011;71734;50.876;7.372;2023-09-30T02:20:48;4.80;;;1.80;;
82159;SDS011;71734;50.876;7.372;2023-09-30T02:23:15;5.05;;;1.98;;
82159;SDS011;71734;50.876;7.372;2023-09-30T02:25:42;4.90;;;1.63;;
82159;SDS011;71734;50.876;7.372;2023-09-30T02:28:09;5.25;;;1.85;;
82159;SDS011;71734;50.876;7.372;2023-09-30T02:30:37;5.90;;;1.98;;
82159;SDS011;71734;50.876;7.372;2023-09-30T02:33:04;6.18;;;2.20;;
82159;SDS011;71734;50.876;7.372;2023-09-30T02:35:34;8.18;;;2.97;;
82159;SDS011;71734;50.876;7.372;2023-09-30T02:38:03;5.88;;;2.08;;
82159;SDS011;71734;50.876;7.372;2023-09-30T02:40:32;11.35;;;2.08;;
82159;SDS011;71734;50.876;7.372;2023-09-30T02:42:59;17.30;;;2.45;;
82159;SDS011;71734;50.876;7.372;2023-09-30T02:45:28;6.53;;;2.13;;
82159;SDS011;71734;50.876;7.372;2023-09-30T02:47:59;8.68;;;2.00;;
82159;SDS011;71734;50.876;7.372;2023-09-30T02:50:30;9.57;;;2.03;;
82159;SDS011;71734;50.876;7.372;2023-09-30T02:52:57;6.50;;;2.00;;
82159;SDS011;71734;50.876;7.372;2023-09-30T02:55:24;6.60;;;2.17;;
82159;SDS011;71734;50.876;7.372;2023-09-30T02:57:52;5.95;;;2.20;;
82159;SDS011;71734;50.876;7.372;2023-09-30T03:00:21;9.13;;;2.17;;
82159;SDS011;71734;50.876;7.372;2023-09-30T03:03:02;12.73;;;2.20;;
82159;SDS011;71734;50.876;7.372;2023-09-30T03:05:36;8.48;;;2.30;;
82159;SDS011;71734;50.876;7.372;2023-09-30T03:08:07;8.15;;;2.63;;
82159;SDS011;71734;50.876;7.372;2023-09-30T03:10:34;6.45;;;2.20;;
82159;SDS011;71734;50.876;7.372;2023-09-30T03:13:07;6.35;;;1.85;;
82159;SDS011;71734;50.876;7.372;2023-09-30T03:15:55;7.82;;;2.13;;
82159;SDS011;71734;50.876;7.372;2023-09-30T03:21:45;30.45;;;3.30;;
82159;SDS011;71734;50.876;7.372;2023-09-30T03:24:30;9.52;;;2.75;;
82159;SDS011;71734;50.876;7.372;2023-09-30T03:31:54;7.50;;;2.47;;
82159;SDS011;71734;50.876;7.372;2023-09-30T04:04:14;12.57;;;5.47;;
82159;SDS011;71734;50.876;7.372;2023-09-30T04:06:41;12.35;;;4.63;;
82159;SDS011;71734;50.876;7.372;2023-09-30T04:09:07;11.32;;;4.82;;
82159;SDS011;71734;50.876;7.372;2023-09-30T04:11:36;12.50;;;4.80;;
82159;SDS011;71734;50.876;7.372;2023-09-30T04:14:03;11.73;;;4.43;;
82159;SDS011;71734;50.876;7.372;2023-09-30T04:16:30;14.48;;;3.88;;
82159;SDS011;71734;50.876;7.372;2023-09-30T04:18:58;12.13;;;4.30;;
82159;SDS011;71734;50.876;7.372;2023-09-30T04:21:25;20.70;;;4.57;;
82159;SDS011;71734;50.876;7.372;2023-09-30T04:23:53;15.07;;;4.20;;
82159;SDS011;71734;50.876;7.372;2023-09-30T04:26:20;11.60;;;4.28;;
82159;SDS011;71734;50.876;7.372;2023-09-30T04:28:46;15.77;;;4.25;;
82159;SDS011;71734;50.876;7.372;2023-09-30T04:31:13;39.33;;;5.80;;
82159;SDS011;71734;50.876;7.372;2023-09-30T04:33:39;90.95;;;7.68;;
82159;SDS011;71734;50.876;7.372;2023-09-30T04:36:07;29.80;;;5.43;;
82159;SDS011;71734;50.876;7.372;2023-09-30T04:38:35;16.10;;;4.07;;
82159;SDS011;71734;50.876;7.372;2023-09-30T04:41:02;11.88;;;4.70;;
82159;SDS011;71734;50.876;7.372;2023-09-30T04:43:32;9.55;;;4.05;;
82159;SDS011;71734;50.876;7.372;2023-09-30T04:45:58;33.55;;;4.57;;
82159;SDS011;71734;50.876;7.372;2023-09-30T04:48:26;22.95;;;4.72;;
82159;SDS011;71734;50.876;7.372;2023-09-30T04:50:54;10.02;;;4.63;;
82159;SDS011;71734;50.876;7.372;2023-09-30T04:53:22;14.30;;;4.78;;
82159;SDS011;71734;50.876;7.372;2023-09-30T04:55:49;11.48;;;4.45;;
82159;SDS011;71734;50.876;7.372;2023-09-30T04:58:16;17.38;;;4.80;;
82159;SDS011;71734;50.876;7.372;2023-09-30T05:00:42;9.90;;;4.20;;
82159;SDS011;71734;50.876;7.372;2023-09-30T05:03:09;20.88;;;4.90;;
82159;SDS011;71734;50.876;7.372;2023-09-30T05:05:36;23.10;;;4.47;;
82159;SDS011;71734;50.876;7.372;2023-09-30T05:08:03;13.38;;;3.95;;
82159;SDS011;71734;50.876;7.372;2023-09-30T05:10:32;10.23;;;4.22;;
82159;SDS011;71734;50.876;7.372;2023-09-30T05:12:59;22.85;;;4.50;;
82159;SDS011;71734;50.876;7.372;2023-09-30T05:15:25;9.77;;;4.13;;
82159;SDS011;71734;50.876;7.372;2023-09-30T05:17:54;14.82;;;4.28;;
82159;SDS011;71734;50.876;7.372;2023-09-30T05:20:21;10.55;;;3.88;;
82159;SDS011;71734;50.876;7.372;2023-09-30T05:22:47;8.20;;;3.55;;
82159;SDS011;71734;50.876;7.372;2023-09-30T05:25:14;24.23;;;4.53;;
82159;SDS011;71734;50.876;7.372;2023-09-30T05:27:43;17.42;;;4.07;;
82159;SDS011;71734;50.876;7.372;2023-09-30T05:30:10;9.45;;;4.10;;
82159;SDS011;71734;50.876;7.372;2023-09-30T05:32:40;9.25;;;3.90;;
82159;SDS011;71734;50.876;7.372;2023-09-30T05:35:07;9.85;;;4.20;;
82159;SDS011;71734;50.876;7.372;2023-09-30T05:37:38;9.52;;;4.05;;
82159;SDS011;71734;50.876;7.372;2023-09-30T05:40:05;16.88;;;4.38;;
82159;SDS011;71734;50.876;7.372;2023-09-30T05:42:41;22.67;;;4.25;;
82159;SDS011;71734;50.876;7.372;2023-09-30T05:45:10;22.95;;;4.40;;
82159;SDS011;71734;50.876;7.372;2023-09-30T05:47:37;22.88;;;4.43;;
82159;SDS011;71734;50.876;7.372;2023-09-30T05:50:05;31.73;;;3.88;;
82159;SDS011;71734;50.876;7.372;2023-09-30T05:52:32;14.25;;;3.60;;
82159;SDS011;71734;50.876;7.372;2023-09-30T05:54:59;9.07;;;3.70;;
82159;SDS011;71734;50.876;7.372;2023-09-30T05:57:27;7.75;;;3.28;;
82159;SDS011;71734;50.876;7.372;2023-09-30T05:59:53;9.88;;;3.13;;
82159;SDS011;71734;50.876;7.372;2023-09-30T06:02:21;8.88;;;3.40;;
82159;SDS011;71734;50.876;7.372;2023-09-30T06:04:48;7.63;;;3.08;;
82159;SDS011;71734;50.876;7.372;2023-09-30T06:07:19;10.77;;;3.28;;
82159;SDS011;71734;50.876;7.372;2023-09-30T06:09:45;7.53;;;2.97;;
82159;SDS011;71734;50.876;7.372;2023-09-30T06:12:13;8.80;;;2.80;;
82159;SDS011;71734;50.876;7.372;2023-09-30T06:14:39;15.40;;;2.80;;
82159;SDS011;71734;50.876;7.372;2023-09-30T06:17:06;11.30;;;2.90;;
82159;SDS011;71734;50.876;7.372;2023-09-30T06:19:35;6.93;;;2.92;;
82159;SDS011;71734;50.876;7.372;2023-09-30T06:22:02;12.18;;;3.17;;
82159;SDS011;71734;50.876;7.372;2023-09-30T06:24:30;38.58;;;3.63;;
82159;SDS011;71734;50.876;7.372;2023-09-30T06:26:56;30.25;;;3.33;;
82159;SDS011;71734;50.876;7.372;2023-09-30T06:29:23;9.70;;;3.03;;
82159;SDS011;71734;50.876;7.372;2023-09-30T06:31:49;9.20;;;3.25;;
82159;SDS011;71734;50.876;7.372;2023-09-30T06:34:16;9.80;;;2.80;;
82159;SDS011;71734;50.876;7.372;2023-09-30T06:36:44;23.42;;;2.88;;
82159;SDS011;71734;50.876;7.372;2023-09-30T06:39:11;20.70;;;3.00;;
82159;SDS011;71734;50.876;7.372;2023-09-30T06:41:37;21.65;;;3.03;;
82159;SDS011;71734;50.876;7.372;2023-09-30T06:44:04;7.35;;;2.33;;
82159;SDS011;71734;50.876;7.372;2023-09-30T06:46:31;28.45;;;2.58;;
82159;SDS011;71734;50.876;7.372;2023-09-30T06:48:57;6.32;;;2.47;;
82159;SDS011;71734;50.876;7.372;2023-09-30T06:51:24;12.27;;;2.90;;
82159;SDS011;71734;50.876;7.372;2023-09-30T06:53:53;35.33;;;3.58;;
82159;SDS011;71734;50.876;7.372;2023-09-30T06:56:20;58.80;;;4.53;;
82159;SDS011;71734;50.876;7.372;2023-09-30T06:58:46;32.63;;;3.58;;
82159;SDS011;71734;50.876;7.372;2023-09-30T07:01:15;6.85;;;2.40;;
82159;SDS011;71734;50.876;7.372;2023-09-30T07:03:43;64.43;;;5.07;;
82159;SDS011;71734;50.876;7.372;2023-09-30T07:06:10;23.60;;;3.45;;
82159;SDS011;71734;50.876;7.372;2023-09-30T07:08:37;6.72;;;2.55;;
82159;SDS011;71734;50.876;7.372;2023-09-30T07:11:05;51.20;;;3.90;;
82159;SDS011;71734;50.876;7.372;2023-09-30T07:13:32;8.57;;;2.70;;
82159;SDS011;71734;50.876;7.372;2023-09-30T07:15:59;7.72;;;2.75;;
82159;SDS011;71734;50.876;7.372;2023-09-30T07:18:25;7.45;;;2.60;;
82159;SDS011;71734;50.876;7.372;2023-09-30T07:20:52;26.05;;;3.80;;
82159;SDS011;71734;50.876;7.372;2023-09-30T07:23:19;8.95;;;2.85;;
82159;SDS011;71734;50.876;7.372;2023-09-30T07:25:45;14.63;;;3.08;;
82159;SDS011;71734;50.876;7.372;2023-09-30T07:28:13;16.25;;;3.00;;
82159;SDS011;71734;50.876;7.372;2023-09-30T07:30:40;24.42;;;4.13;;
82159;SDS011;71734;50.876;7.372;2023-09-30T07:33:07;34.83;;;3.67;;
82159;SDS011;71734;50.876;7.372;2023-09-30T07:35:34;43.15;;;4.20;;
82159;SDS011;71734;50.876;7.372;2023-09-30T07:38:01;12.32;;;2.85;;
82159;SDS011;71734;50.876;7.372;2023-09-30T07:40:29;9.95;;;3.22;;
82159;SDS011;71734;50.876;7.372;2023-09-30T07:42:56;7.57;;;2.60;;
82159;SDS011;71734;50.876;7.372;2023-09-30T07:45:24;7.15;;;2.70;;
82159;SDS011;71734;50.876;7.372;2023-09-30T07:47:50;8.02;;;3.00;;
82159;SDS011;71734;50.876;7.372;2023-09-30T07:50:17;7.25;;;2.90;;
82159;SDS011;71734;50.876;7.372;2023-09-30T07:52:44;15.95;;;3.38;;
82159;SDS011;71734;50.876;7.372;2023-09-30T07:55:11;7.45;;;3.03;;
82159;SDS011;71734;50.876;7.372;2023-09-30T07:57:39;17.35;;;4.22;;
82159;SDS011;71734;50.876;7.372;2023-09-30T08:00:07;9.63;;;3.25;;
82159;SDS011;71734;50.876;7.372;2023-09-30T08:02:41;21.88;;;4.82;;
82159;SDS011;71734;50.876;7.372;2023-09-30T08:05:08;15.43;;;4.45;;
82159;SDS011;71734;50.876;7.372;2023-09-30T08:07:35;26.20;;;4.57;;
82159;SDS011;71734;50.876;7.372;2023-09-30T08:10:02;19.10;;;4.57;;
82159;SDS011;71734;50.876;7.372;2023-09-30T08:12:31;12.82;;;4.20;;
82159;SDS011;71734;50.876;7.372;2023-09-30T08:14:58;28.83;;;4.40;;
82159;SDS011;71734;50.876;7.372;2023-09-30T08:17:25;21.08;;;4.60;;
82159;SDS011;71734;50.876;7.372;2023-09-30T08:19:53;11.13;;;4.28;;
82159;SDS011;71734;50.876;7.372;2023-09-30T08:22:19;14.60;;;5.03;;
82159;SDS011;71734;50.876;7.372;2023-09-30T08:24:50;21.23;;;5.20;;
82159;SDS011;71734;50.876;7.372;2023-09-30T08:27:17;20.80;;;4.60;;
82159;SDS011;71734;50.876;7.372;2023-09-30T08:29:43;18.10;;;5.00;;
82159;SDS011;71734;50.876;7.372;2023-09-30T08:32:10;12.73;;;5.13;;
82159;SDS011;71734;50.876;7.372;2023-09-30T08:34:36;11.85;;;4.78;;
82159;SDS011;71734;50.876;7.372;2023-09-30T08:37:04;17.45;;;5.30;;
82159;SDS011;71734;50.876;7.372;2023-09-30T08:39:37;11.30;;;4.82;;
82159;SDS011;71734;50.876;7.372;2023-09-30T08:42:04;13.18;;;4.82;;
82159;SDS011;71734;50.876;7.372;2023-09-30T08:44:35;12.95;;;4.93;;
82159;SDS011;71734;50.876;7.372;2023-09-30T08:47:02;14.38;;;5.70;;
82159;SDS011;71734;50.876;7.372;2023-09-30T08:49:30;13.95;;;5.25;;
82159;SDS011;71734;50.876;7.372;2023-09-30T08:59:31;13.20;;;5.60;;
82159;SDS011;71734;50.876;7.372;2023-09-30T09:02:00;12.80;;;4.50;;
82159;SDS011;71734;50.876;7.372;2023-09-30T09:04:27;12.82;;;4.57;;
82159;SDS011;71734;50.876;7.372;2023-09-30T09:06:58;11.80;;;5.05;;
82159;SDS011;71734;50.876;7.372;2023-09-30T09:09:25;13.70;;;5.53;;
82159;SDS011;71734;50.876;7.372;2023-09-30T09:11:51;13.57;;;5.43;;
82159;SDS011;71734;50.876;7.372;2023-09-30T09:14:18;12.85;;;5.10;;
82159;SDS011;71734;50.876;7.372;2023-09-30T09:21:55;12.18;;;4.88;;
82159;SDS011;71734;50.876;7.372;2023-09-30T09:24:29;14.07;;;5.07;;
82159;SDS011;71734;50.876;7.372;2023-09-30T09:27:09;12.18;;;5.10;;
82159;SDS011;71734;50.876;7.372;2023-09-30T09:29:37;11.85;;;4.82;;
82159;SDS011;71734;50.876;7.372;2023-09-30T09:32:08;11.85;;;5.20;;
82159;SDS011;71734;50.876;7.372;2023-09-30T09:34:36;11.25;;;4.68;;
82159;SDS011;71734;50.876;7.372;2023-09-30T09:37:13;13.35;;;5.30;;
82159;SDS011;71734;50.876;7.372;2023-09-30T09:39:52;11.60;;;4.57;;
82159;SDS011;71734;50.876;7.372;2023-09-30T09:42:26;11.93;;;5.07;;
82159;SDS011;71734;50.876;7.372;2023-09-30T09:44:57;13.60;;;4.85;;
82159;SDS011;71734;50.876;7.372;2023-09-30T09:47:25;13.25;;;5.53;;
82159;SDS011;71734;50.876;7.372;2023-09-30T09:49:52;13.15;;;5.35;;
82159;SDS011;71734;50.876;7.372;2023-09-30T09:52:24;11.65;;;4.95;;
82159;SDS011;71734;50.876;7.372;2023-09-30T09:54:51;12.48;;;5.85;;
82159;SDS011;71734;50.876;7.372;2023-09-30T09:57:17;9.65;;;4.22;;
82159;SDS011;71734;50.876;7.372;2023-09-30T09:59:44;12.95;;;4.97;;
82159;SDS011;71734;50.876;7.372;2023-09-30T10:02:13;13.60;;;5.72;;
82159;SDS011;71734;50.876;7.372;2023-09-30T10:04:43;12.40;;;4.30;;
82159;SDS011;71734;50.876;7.372;2023-09-30T10:07:11;10.07;;;4.10;;
82159;SDS011;71734;50.876;7.372;2023-09-30T10:09:46;10.10;;;4.43;;
82159;SDS011;71734;50.876;7.372;2023-09-30T10:12:15;12.02;;;4.45;;
82159;SDS011;71734;50.876;7.372;2023-09-30T10:14:42;11.30;;;4.35;;
82159;SDS011;71734;50.876;7.372;2023-09-30T10:17:09;12.23;;;4.97;;
82159;SDS011;71734;50.876;7.372;2023-09-30T10:22:40;12.70;;;5.10;;
82159;SDS011;71734;50.876;7.372;2023-09-30T10:31:13;11.57;;;4.43;;
82159;SDS011;71734;50.876;7.372;2023-09-30T10:36:46;10.00;;;4.25;;
82159;SDS011;71734;50.876;7.372;2023-09-30T10:51:11;9.23;;;4.00;;
82159;SDS011;71734;50.876;7.372;2023-09-30T10:53:41;10.30;;;3.88;;
82159;SDS011;71734;50.876;7.372;2023-09-30T10:56:37;13.20;;;4.15;;
82159;SDS011;71734;50.876;7.372;2023-09-30T11:02:28;8.57;;;3.80;;
82159;SDS011;71734;50.876;7.372;2023-09-30T11:05:12;10.15;;;4.47;;
82159;SDS011;71734;50.876;7.372;2023-09-30T11:08:34;10.43;;;4.38;;
82159;SDS011;71734;50.876;7.372;2023-09-30T11:14:47;9.70;;;3.88;;
82159;SDS011;71734;50.876;7.372;2023-09-30T11:21:06;11.90;;;3.80;;
82159;SDS011;71734;50.876;7.372;2023-09-30T11:23:45;10.07;;;3.85;;
82159;SDS011;71734;50.876;7.372;2023-09-30T11:26:11;9.60;;;4.30;;
82159;SDS011;71734;50.876;7.372;2023-09-30T11:28:43;9.18;;;3.88;;
82159;SDS011;71734;50.876;7.372;2023-09-30T11:31:13;8.02;;;3.78;;
82159;SDS011;71734;50.876;7.372;2023-09-30T11:33:54;8.75;;;4.07;;
82159;SDS011;71734;50.876;7.372;2023-09-30T11:36:24;10.63;;;3.65;;
82159;SDS011;71734;50.876;7.372;2023-09-30T11:38:51;10.85;;;3.67;;
82159;SDS011;71734;50.876;7.372;2023-09-30T11:41:20;8.57;;;3.63;;
82159;SDS011;71734;50.876;7.372;2023-09-30T11:44:00;8.65;;;3.40;;
82159;SDS011;71734;50.876;7.372;2023-09-30T11:46:29;10.35;;;3.78;;
82159;SDS011;71734;50.876;7.372;2023-09-30T11:48:58;9.55;;;3.60;;
82159;SDS011;71734;50.876;7.372;2023-09-30T11:51:29;9.20;;;3.30;;
82159;SDS011;71734;50.876;7.372;2023-09-30T11:53:56;7.95;;;3.30;;
82159;SDS011;71734;50.876;7.372;2023-09-30T11:56:23;8.68;;;3.67;;
82159;SDS011;71734;50.876;7.372;2023-09-30T11:58:54;9.25;;;3.13;;
82159;SDS011;71734;50.876;7.372;2023-09-30T12:01:24;10.57;;;3.63;;
82159;SDS011;71734;50.876;7.372;2023-09-30T12:03:51;8.20;;;3.55;;
82159;SDS011;71734;50.876;7.372;2023-09-30T12:06:19;10.02;;;3.72;;
82159;SDS011;71734;50.876;7.372;2023-09-30T12:08:48;8.95;;;3.03;;
82159;SDS011;71734;50.876;7.372;2023-09-30T12:11:16;10.73;;;3.90;;
82159;SDS011;71734;50.876;7.372;2023-09-30T12:13:43;10.75;;;3.00;;
82159;SDS011;71734;50.876;7.372;2023-09-30T12:16:14;9.50;;;3.42;;
82159;SDS011;71734;50.876;7.372;2023-09-30T12:18:41;8.48;;;2.88;;
82159;SDS011;71734;50.876;7.372;2023-09-30T12:21:11;9.05;;;3.25;;
82159;SDS011;71734;50.876;7.372;2023-09-30T12:23:38;8.32;;;2.80;;
82159;SDS011;71734;50.876;7.372;2023-09-30T12:26:07;7.20;;;2.78;;
82159;SDS011;71734;50.876;7.372;2023-09-30T12:28:34;10.40;;;2.97;;
82159;SDS011;71734;50.876;7.372;2023-09-30T12:31:00;6.50;;;2.65;;
82159;SDS011;71734;50.876;7.372;2023-09-30T12:33:28;10.05;;;3.17;;
82159;SDS011;71734;50.876;7.372;2023-09-30T12:35:55;7.35;;;2.70;;
82159;SDS011;71734;50.876;7.372;2023-09-30T12:38:22;8.18;;;2.67;;
82159;SDS011;71734;50.876;7.372;2023-09-30T12:40:52;8.15;;;2.92;;
82159;SDS011;71734;50.876;7.372;2023-09-30T12:43:21;7.28;;;2.63;;
82159;SDS011;71734;50.876;7.372;2023-09-30T12:45:48;7.80;;;2.80;;
82159;SDS011;71734;50.876;7.372;2023-09-30T12:48:14;6.88;;;2.60;;
82159;SDS011;71734;50.876;7.372;2023-09-30T12:50:43;7.22;;;2.72;;
82159;SDS011;71734;50.876;7.372;2023-09-30T12:53:10;6.93;;;2.65;;
82159;SDS011;71734;50.876;7.372;2023-09-30T12:55:39;6.35;;;2.45;;
82159;SDS011;71734;50.876;7.372;2023-09-30T12:58:05;10.82;;;3.28;;
82159;SDS011;71734;50.876;7.372;2023-09-30T13:00:37;7.43;;;2.33;;
82159;SDS011;71734;50.876;7.372;2023-09-30T13:03:03;8.13;;;2.67;;
82159;SDS011;71734;50.876;7.372;2023-09-30T13:05:30;8.27;;;2.85;;
82159;SDS011;71734;50.876;7.372;2023-09-30T13:07:57;6.30;;;2.50;;
82159;SDS011;71734;50.876;7.372;2023-09-30T13:10:23;8.45;;;2.88;;
82159;SDS011;71734;50.876;7.372;2023-09-30T13:12:50;8.35;;;2.92;;
82159;SDS011;71734;50.876;7.372;2023-09-30T13:15:27;8.10;;;3.00;;
82159;SDS011;71734;50.876;7.372;2023-09-30T13:18:11;7.72;;;2.42;;
82159;SDS011;71734;50.876;7.372;2023-09-30T13:20:44;8.52;;;2.95;;
82159;SDS011;71734;50.876;7.372;2023-09-30T13:23:10;7.57;;;2.65;;
82159;SDS011;71734;50.876;7.372;2023-09-30T13:25:36;6.78;;;2.75;;
82159;SDS011;71734;50.876;7.372;2023-09-30T13:28:03;8.00;;;2.85;;
82159;SDS011;71734;50.876;7.372;2023-09-30T13:30:30;8.57;;;2.63;;
82159;SDS011;71734;50.876;7.372;2023-09-30T13:32:57;8.77;;;2.70;;
82159;SDS011;71734;50.876;7.372;2023-09-30T13:35:27;7.30;;;2.33;;
82159;SDS011;71734;50.876;7.372;2023-09-30T13:37:54;7.70;;;2.50;;
82159;SDS011;71734;50.876;7.372;2023-09-30T13:40:21;6.88;;;2.78;;
82159;SDS011;71734;50.876;7.372;2023-09-30T13:42:47;6.60;;;2.70;;
82159;SDS011;71734;50.876;7.372;2023-09-30T13:45:14;7.53;;;2.72;;
82159;SDS011;71734;50.876;7.372;2023-09-30T13:47:42;8.18;;;3.35;;
82159;SDS011;71734;50.876;7.372;2023-09-30T13:50:08;7.47;;;2.67;;
82159;SDS011;71734;50.876;7.372;2023-09-30T13:52:36;7.03;;;2.63;;
82159;SDS011;71734;50.876;7.372;2023-09-30T13:55:03;7.78;;;2.70;;
82159;SDS011;71734;50.876;7.372;2023-09-30T13:57:33;6.95;;;2.90;;
82159;SDS011;71734;50.876;7.372;2023-09-30T14:00:00;8.48;;;2.90;;
82159;SDS011;71734;50.876;7.372;2023-09-30T14:02:26;6.82;;;2.63;;
82159;SDS011;71734;50.876;7.372;2023-09-30T14:04:53;8.02;;;2.92;;
82159;SDS011;71734;50.876;7.372;2023-09-30T14:07:22;7.18;;;2.70;;
82159;SDS011;71734;50.876;7.372;2023-09-30T14:09:49;7.30;;;2.50;;
82159;SDS011;71734;50.876;7.372;2023-09-30T14:12:17;7.57;;;2.58;;
82159;SDS011;71734;50.876;7.372;2023-09-30T14:14:45;7.75;;;2.53;;
82159;SDS011;71734;50.876;7.372;2023-09-30T14:17:11;7.53;;;2.50;;
82159;SDS011;71734;50.876;7.372;2023-09-30T14:19:40;6.82;;;2.40;;
82159;SDS011;71734;50.876;7.372;2023-09-30T14:22:09;7.78;;;2.50;;
82159;SDS011;71734;50.876;7.372;2023-09-30T14:27:37;5.47;;;1.90;;
82159;SDS011;71734;50.876;7.372;2023-09-30T14:30:05;5.80;;;1.90;;
82159;SDS011;71734;50.876;7.372;2023-09-30T14:32:33;7.88;;;2.45;;
82159;SDS011;71734;50.876;7.372;2023-09-30T14:35:03;7.03;;;2.40;;
82159;SDS011;71734;50.876;7.372;2023-09-30T14:37:30;6.18;;;2.25;;
82159;SDS011;71734;50.876;7.372;2023-09-30T14:39:58;6.43;;;2.20;;
82159;SDS011;71734;50.876;7.372;2023-09-30T14:42:25;7.35;;;2.60;;
82159;SDS011;71734;50.876;7.372;2023-09-30T14:44:54;9.40;;;2.53;;
82159;SDS011;71734;50.876;7.372;2023-09-30T14:47:22;5.88;;;2.28;;
82159;SDS011;71734;50.876;7.372;2023-09-30T14:49:48;6.53;;;2.50;;
82159;SDS011;71734;50.876;7.372;2023-09-30T14:52:15;6.28;;;2.58;;
82159;SDS011;71734;50.876;7.372;2023-09-30T14:54:41;6.38;;;2.38;;
82159;SDS011;71734;50.876;7.372;2023-09-30T14:57:09;6.57;;;2.40;;
82159;SDS011;71734;50.876;7.372;2023-09-30T14:59:38;7.32;;;2.55;;
82159;SDS011;71734;50.876;7.372;2023-09-30T15:02:05;7.43;;;2.42;;
82159;SDS011;71734;50.876;7.372;2023-09-30T15:04:33;9.48;;;2.50;;
82159;SDS011;71734;50.876;7.372;2023-09-30T15:07:00;7.72;;;2.40;;
82159;SDS011;71734;50.876;7.372;2023-09-30T15:09:27;6.65;;;2.60;;
82159;SDS011;71734;50.876;7.372;2023-09-30T15:11:53;7.60;;;2.55;;
82159;SDS011;71734;50.876;7.372;2023-09-30T15:14:21;7.43;;;2.90;;
82159;SDS011;71734;50.876;7.372;2023-09-30T15:16:47;6.57;;;2.55;;
82159;SDS011;71734;50.876;7.372;2023-09-30T15:19:14;9.55;;;2.65;;
82159;SDS011;71734;50.876;7.372;2023-09-30T15:21:40;6.88;;;2.50;;
82159;SDS011;71734;50.876;7.372;2023-09-30T15:24:07;7.13;;;2.58;;
82159;SDS011;71734;50.876;7.372;2023-09-30T15:26:35;7.53;;;2.80;;
82159;SDS011;71734;50.876;7.372;2023-09-30T15:29:02;8.00;;;2.72;;
82159;SDS011;71734;50.876;7.372;2023-09-30T15:31:30;5.68;;;2.30;;
82159;SDS011;71734;50.876;7.372;2023-09-30T15:33:57;6.20;;;2.53;;
82159;SDS011;71734;50.876;7.372;2023-09-30T15:36:23;6.65;;;2.40;;
82159;SDS011;71734;50.876;7.372;2023-09-30T15:38:50;8.57;;;2.60;;
82159;SDS011;71734;50.876;7.372;2023-09-30T15:41:19;7.22;;;2.55;;
82159;SDS011;71734;50.876;7.372;2023-09-30T15:43:48;6.60;;;2.78;;
82159;SDS011;71734;50.876;7.372;2023-09-30T15:46:15;6.85;;;2.67;;
82159;SDS011;71734;50.876;7.372;2023-09-30T15:48:43;5.70;;;2.35;;
82159;SDS011;71734;50.876;7.372;2023-09-30T15:51:09;7.13;;;2.60;;
82159;SDS011;71734;50.876;7.372;2023-09-30T15:53:38;6.65;;;2.60;;
82159;SDS011;71734;50.876;7.372;2023-09-30T15:56:04;6.25;;;2.47;;
82159;SDS011;71734;50.876;7.372;2023-09-30T15:58:31;7.65;;;3.00;;
82159;SDS011;71734;50.876;7.372;2023-09-30T16:00:58;6.82;;;2.40;;
82159;SDS011;71734;50.876;7.372;2023-09-30T16:03:25;7.00;;;2.60;;
82159;SDS011;71734;50.876;7.372;2023-09-30T16:05:53;7.28;;;2.85;;
82159;SDS011;71734;50.876;7.372;2023-09-30T16:08:19;10.40;;;3.90;;
82159;SDS011;71734;50.876;7.372;2023-09-30T16:10:46;10.70;;;3.55;;
82159;SDS011;71734;50.876;7.372;2023-09-30T16:13:13;21.10;;;8.30;;
82159;SDS011;71734;50.876;7.372;2023-09-30T16:15:40;15.07;;;6.60;;
82159;SDS011;71734;50.876;7.372;2023-09-30T16:18:10;8.73;;;3.17;;